Time;durP1;ratioP1;P1;durP2;ratioP2;P2;SDS_P1;SDS_P2;PMS_P1;PMS_P2;Temp;Humidity;BMP_temperature;BMP_pressure;BME280_temperature;BME280_humidity;BME280_pressure;Samples;Min_cycle;Max_cycle;Signal;HPM_P1;HPM_P2
2023/07/02 00:00:30;;;;;;;3.20;2.33;;;20.20;90.20;;;;;;898602;155;27384;-72
2023/07/02 00:02:57;;;;;;;2.08;1.98;;;20.20;90.00;;;;;;899026;155;27728;-73
2023/07/02 00:05:23;;;;;;;2.30;2.10;;;20.20;89.90;;;;;;898484;158;27468;-72
2023/07/02 00:07:50;;;;;;;2.05;1.90;;;20.30;90.00;;;;;;899469;155;27517;-73
2023/07/02 00:10:16;;;;;;;2.20;2.10;;;20.30;88.90;;;;;;902376;154;27387;-73
2023/07/02 00:12:44;;;;;;;2.10;1.90;;;20.30;88.80;;;;;;899354;155;27497;-73
2023/07/02 00:15:10;;;;;;;1.92;1.82;;;20.30;88.20;;;;;;899033;155;27494;-73
2023/07/02 00:17:39;;;;;;;1.77;1.67;;;20.30;88.00;;;;;;898741;155;27472;-73
2023/07/02 00:20:09;;;;;;;2.12;1.87;;;20.40;87.50;;;;;;896763;155;27392;-72
2023/07/02 00:22:30;;;;;;;1.95;1.80;;;20.40;87.40;;;;;;899806;155;27381;-72
2023/07/02 00:24:56;;;;;;;2.27;2.08;;;20.40;87.20;;;;;;898715;155;27374;-73
2023/07/02 00:27:23;;;;;;;2.65;1.70;;;20.40;86.70;;;;;;897791;155;27448;-72
2023/07/02 00:29:49;;;;;;;2.08;1.98;;;20.40;86.60;;;;;;900633;155;27416;-73
2023/07/02 00:32:16;;;;;;;2.33;1.72;;;20.40;86.40;;;;;;900395;155;27575;-73
2023/07/02 00:34:42;;;;;;;1.92;1.70;;;20.40;86.00;;;;;;899924;155;27533;-73
2023/07/02 00:37:09;;;;;;;1.67;1.57;;;20.40;85.60;;;;;;898952;155;27465;-73
2023/07/02 00:39:36;;;;;;;1.98;1.75;;;20.40;85.10;;;;;;900279;158;27468;-73
2023/07/02 00:42:02;;;;;;;2.42;1.60;;;20.40;84.70;;;;;;899267;155;27478;-73
2023/07/02 00:44:29;;;;;;;2.00;1.65;;;20.40;84.20;;;;;;897862;155;27385;-73
2023/07/02 00:46:55;;;;;;;1.60;1.50;;;20.40;83.80;;;;;;898037;155;27395;-73
2023/07/02 00:49:22;;;;;;;2.15;1.70;;;20.40;83.80;;;;;;899195;155;27443;-73
2023/07/02 00:51:48;;;;;;;2.00;1.80;;;20.40;83.70;;;;;;897402;157;27542;-73
2023/07/02 00:54:15;;;;;;;2.12;1.55;;;20.40;83.70;;;;;;899739;155;27356;-73
2023/07/02 00:56:42;;;;;;;2.40;1.50;;;20.30;83.60;;;;;;898859;155;27394;-73
2023/07/02 00:59:08;;;;;;;1.75;1.60;;;20.30;83.50;;;;;;898434;155;27366;-73
2023/07/02 01:01:37;;;;;;;2.42;2.22;;;20.30;83.30;;;;;;899902;155;27394;-73
2023/07/02 01:04:02;;;;;;;1.47;1.37;;;20.30;83.20;;;;;;898383;155;27479;-73
2023/07/02 01:06:34;;;;;;;1.57;1.47;;;20.20;83.00;;;;;;898844;155;27339;-73
2023/07/02 01:09:03;;;;;;;1.82;1.72;;;20.20;82.70;;;;;;898437;156;27381;-72
2023/07/02 01:11:39;;;;;;;2.25;1.70;;;20.20;82.60;;;;;;897687;155;27398;-73
2023/07/02 01:14:08;;;;;;;1.50;1.40;;;20.20;82.50;;;;;;897928;155;27399;-73
2023/07/02 01:16:34;;;;;;;1.40;1.30;;;20.10;82.20;;;;;;899058;155;27362;-72
2023/07/02 01:19:03;;;;;;;1.72;1.62;;;20.10;82.20;;;;;;899311;155;27503;-72
2023/07/02 01:21:27;;;;;;;2.60;1.52;;;20.00;81.90;;;;;;898440;155;27528;-72
2023/07/02 01:23:54;;;;;;;1.55;1.45;;;20.00;81.60;;;;;;899127;155;27456;-73
2023/07/02 01:26:21;;;;;;;2.70;1.35;;;20.00;81.30;;;;;;899071;155;27483;-73
2023/07/02 01:28:47;;;;;;;2.15;1.77;;;19.90;81.00;;;;;;898796;155;27384;-73
2023/07/02 01:31:14;;;;;;;1.65;1.50;;;19.90;80.90;;;;;;900323;155;27439;-73
2023/07/02 01:33:40;;;;;;;1.98;1.35;;;19.90;80.80;;;;;;898533;155;27343;-73
2023/07/02 01:36:07;;;;;;;1.82;1.50;;;19.80;80.80;;;;;;897787;155;27420;-73
2023/07/02 01:38:33;;;;;;;2.27;1.20;;;19.80;80.90;;;;;;899091;155;27485;-73
2023/07/02 01:41:00;;;;;;;5.08;1.70;;;19.80;80.70;;;;;;898082;156;27435;-73
2023/07/02 01:43:27;;;;;;;1.52;1.32;;;19.70;80.40;;;;;;897360;155;27388;-73
2023/07/02 01:45:55;;;;;;;1.60;1.32;;;19.70;80.20;;;;;;897491;155;27378;-73
2023/07/02 01:48:20;;;;;;;1.60;1.50;;;19.70;80.00;;;;;;897317;156;27344;-73
2023/07/02 01:50:46;;;;;;;2.52;1.60;;;19.60;79.70;;;;;;899754;157;27395;-73
2023/07/02 01:53:13;;;;;;;2.30;1.50;;;19.50;79.60;;;;;;901405;155;27519;-73
2023/07/02 01:55:40;;;;;;;1.70;1.60;;;19.50;79.70;;;;;;899946;155;27367;-73
2023/07/02 01:58:07;;;;;;;1.50;1.40;;;19.40;79.80;;;;;;898176;155;27444;-73
2023/07/02 02:00:33;;;;;;;1.35;1.25;;;19.30;80.00;;;;;;898744;157;27372;-73
2023/07/02 02:02:59;;;;;;;1.85;1.57;;;19.20;80.20;;;;;;899220;155;27405;-73
2023/07/02 02:05:26;;;;;;;1.60;1.50;;;19.10;80.40;;;;;;898505;155;27489;-72
2023/07/02 02:07:53;;;;;;;2.25;1.60;;;19.00;80.60;;;;;;898680;155;27333;-73
2023/07/02 02:10:19;;;;;;;2.10;1.50;;;18.90;80.90;;;;;;899943;157;27478;-73
2023/07/02 02:12:46;;;;;;;3.67;1.62;;;18.80;81.00;;;;;;893962;157;27422;-73
2023/07/02 02:15:14;;;;;;;1.65;1.55;;;18.80;81.40;;;;;;898570;156;27862;-72
2023/07/02 02:17:39;;;;;;;1.50;1.40;;;18.60;81.50;;;;;;899113;155;27855;-73
2023/07/02 02:20:06;;;;;;;1.82;1.47;;;18.60;81.70;;;;;;899998;155;27413;-73
2023/07/02 02:22:32;;;;;;;1.40;1.30;;;18.50;82.00;;;;;;898825;155;27401;-73
2023/07/02 02:24:59;;;;;;;2.10;1.42;;;18.40;82.20;;;;;;897754;155;27514;-72
2023/07/02 02:27:26;;;;;;;1.80;1.55;;;18.30;82.50;;;;;;899082;155;27507;-72
2023/07/02 02:29:52;;;;;;;5.65;1.50;;;18.30;82.80;;;;;;901005;155;27406;-73
2023/07/02 02:32:21;;;;;;;2.87;1.52;;;18.20;83.50;;;;;;902617;155;27431;-73
2023/07/02 02:34:45;;;;;;;2.15;1.57;;;18.10;83.30;;;;;;901037;158;27447;-73
2023/07/02 02:37:12;;;;;;;2.62;1.67;;;18.00;83.50;;;;;;899607;155;27422;-72
2023/07/02 02:39:39;;;;;;;1.70;1.40;;;18.00;83.90;;;;;;899041;155;27351;-72
2023/07/02 02:42:05;;;;;;;2.85;1.92;;;17.90;84.00;;;;;;898160;155;27503;-72
2023/07/02 02:44:32;;;;;;;2.73;1.60;;;17.90;84.30;;;;;;898875;155;27382;-72
2023/07/02 02:46:59;;;;;;;2.95;1.60;;;17.80;84.50;;;;;;898451;155;27412;-74
2023/07/02 02:49:25;;;;;;;2.85;1.60;;;17.70;84.90;;;;;;898367;155;27965;-76
2023/07/02 02:51:51;;;;;;;1.57;1.45;;;17.70;84.90;;;;;;899899;155;27458;-75
2023/07/02 02:54:18;;;;;;;2.30;1.70;;;17.60;85.20;;;;;;899197;155;27452;-75
2023/07/02 02:56:45;;;;;;;2.30;1.80;;;17.60;85.30;;;;;;897727;155;27431;-71
2023/07/02 02:59:11;;;;;;;2.58;1.95;;;17.50;85.50;;;;;;896060;155;27398;-72
2023/07/02 03:01:38;;;;;;;1.85;1.75;;;17.50;85.80;;;;;;896253;155;27486;-72
2023/07/02 03:04:08;;;;;;;2.07;1.80;;;17.50;86.00;;;;;;900692;155;27363;-72
2023/07/02 03:06:31;;;;;;;2.87;2.07;;;17.40;86.10;;;;;;899792;155;27464;-72
2023/07/02 03:08:58;;;;;;;2.42;1.90;;;17.40;86.30;;;;;;897803;155;27503;-71
2023/07/02 03:11:24;;;;;;;2.72;2.10;;;17.40;86.20;;;;;;900449;158;27394;-72
2023/07/02 03:13:51;;;;;;;3.90;2.50;;;17.30;86.00;;;;;;900164;155;27302;-71
2023/07/02 03:16:17;;;;;;;2.60;2.20;;;17.30;85.90;;;;;;898362;155;27456;-72
2023/07/02 03:18:44;;;;;;;3.12;2.35;;;17.30;85.80;;;;;;897880;158;27618;-72
2023/07/02 03:21:11;;;;;;;2.60;2.40;;;17.30;85.70;;;;;;900600;155;27924;-72
2023/07/02 03:23:37;;;;;;;2.60;2.40;;;17.30;85.40;;;;;;898774;157;27477;-71
2023/07/02 03:26:04;;;;;;;5.10;2.70;;;17.30;85.20;;;;;;897991;155;27379;-72
2023/07/02 03:28:31;;;;;;;3.57;2.60;;;17.20;85.00;;;;;;899579;155;27476;-71
2023/07/02 03:30:57;;;;;;;4.73;3.10;;;17.20;84.70;;;;;;898662;154;27429;-71
2023/07/02 03:33:23;;;;;;;2.87;2.33;;;17.20;84.60;;;;;;897861;155;27399;-72
2023/07/02 03:35:50;;;;;;;3.57;3.27;;;17.20;84.50;;;;;;900622;155;27397;-72
2023/07/02 03:38:17;;;;;;;3.52;2.37;;;17.20;84.40;;;;;;899678;155;27366;-72
2023/07/02 03:40:43;;;;;;;3.90;2.90;;;17.20;84.50;;;;;;896714;155;27405;-72
2023/07/02 03:43:10;;;;;;;2.62;2.27;;;17.10;84.40;;;;;;900410;155;27435;-72
2023/07/02 03:45:36;;;;;;;3.58;2.33;;;17.10;84.40;;;;;;900966;155;27514;-71
2023/07/02 03:48:03;;;;;;;4.10;2.67;;;17.10;84.60;;;;;;898848;155;27370;-72
2023/07/02 03:50:30;;;;;;;3.10;2.63;;;17.10;84.90;;;;;;897714;155;27462;-72
2023/07/02 03:52:56;;;;;;;2.65;2.45;;;17.20;85.20;;;;;;898478;155;27428;-72
2023/07/02 03:55:23;;;;;;;3.47;2.62;;;17.20;85.30;;;;;;899525;155;27459;-71
2023/07/02 03:57:49;;;;;;;4.45;2.92;;;17.20;85.40;;;;;;899011;155;27299;-71
2023/07/02 04:00:16;;;;;;;5.37;3.08;;;17.30;85.50;;;;;;898537;155;27370;-72
2023/07/02 04:02:43;;;;;;;3.02;2.80;;;17.40;85.30;;;;;;899850;158;27509;-72
2023/07/02 04:05:09;;;;;;;3.02;2.67;;;17.50;85.20;;;;;;900322;155;27419;-71
2023/07/02 04:07:36;;;;;;;3.05;2.35;;;17.50;84.60;;;;;;899474;155;27415;-71
2023/07/02 04:10:02;;;;;;;3.85;3.15;;;17.60;84.20;;;;;;897371;155;27383;-71
2023/07/02 04:12:29;;;;;;;3.50;2.80;;;17.70;84.10;;;;;;899569;155;27499;-72
2023/07/02 04:14:56;;;;;;;3.42;2.87;;;17.70;83.90;;;;;;899388;155;27410;-72
2023/07/02 04:17:22;;;;;;;4.15;2.98;;;17.80;83.60;;;;;;900499;157;27370;-72
2023/07/02 04:19:49;;;;;;;3.12;2.83;;;17.90;83.40;;;;;;897001;155;27361;-71
2023/07/02 04:22:15;;;;;;;4.35;3.20;;;18.00;83.00;;;;;;899903;155;27382;-71
2023/07/02 04:24:42;;;;;;;5.08;3.33;;;18.00;82.60;;;;;;898280;155;27399;-72
2023/07/02 04:27:08;;;;;;;4.97;3.33;;;18.10;82.30;;;;;;899012;155;27542;-72
2023/07/02 04:29:35;;;;;;;4.17;3.45;;;18.20;81.70;;;;;;899212;157;27469;-71
2023/07/02 04:32:02;;;;;;;4.47;3.60;;;18.30;81.30;;;;;;900326;155;27303;-71
2023/07/02 04:34:28;;;;;;;4.17;3.37;;;18.30;80.90;;;;;;899744;155;27451;-71
2023/07/02 04:36:55;;;;;;;3.98;3.55;;;18.40;80.60;;;;;;898516;155;27419;-72
2023/07/02 04:39:21;;;;;;;4.50;3.40;;;18.40;80.20;;;;;;898764;155;27388;-71
2023/07/02 04:41:52;;;;;;;6.42;3.60;;;18.50;80.00;;;;;;898123;155;27428;-72
2023/07/02 04:44:15;;;;;;;5.17;3.40;;;18.60;79.70;;;;;;899037;155;27363;-71
2023/07/02 04:46:41;;;;;;;4.28;3.47;;;18.60;79.50;;;;;;897187;155;27467;-72
2023/07/02 04:49:08;;;;;;;5.90;3.75;;;18.70;79.30;;;;;;898284;157;27513;-71
2023/07/02 04:51:34;;;;;;;4.05;3.55;;;18.80;79.10;;;;;;898601;155;27384;-72
2023/07/02 04:54:01;;;;;;;4.70;3.75;;;18.80;78.70;;;;;;899801;155;27406;-72
2023/07/02 04:56:28;;;;;;;5.15;3.80;;;18.90;78.40;;;;;;898538;155;27556;-71
2023/07/02 04:58:54;;;;;;;5.22;3.95;;;19.00;78.10;;;;;;898292;155;27432;-72
2023/07/02 05:01:21;;;;;;;5.92;4.33;;;19.10;78.00;;;;;;900121;155;27890;-71
2023/07/02 05:03:47;;;;;;;5.40;4.20;;;19.10;77.80;;;;;;899389;155;27377;-71
2023/07/02 05:06:14;;;;;;;4.42;3.65;;;19.20;78.10;;;;;;899967;155;27812;-71
2023/07/02 05:08:40;;;;;;;6.45;4.08;;;19.30;77.30;;;;;;898066;155;27319;-72
2023/07/02 05:11:07;;;;;;;4.47;3.70;;;19.40;77.20;;;;;;899505;155;27397;-71
2023/07/02 05:13:34;;;;;;;6.50;3.80;;;19.50;76.90;;;;;;896885;155;27418;-72
2023/07/02 05:16:00;;;;;;;4.92;4.33;;;19.50;76.90;;;;;;897650;155;27468;-72
2023/07/02 05:18:27;;;;;;;4.37;3.90;;;19.70;76.70;;;;;;899766;155;27355;-71
2023/07/02 05:20:53;;;;;;;8.23;4.20;;;19.80;76.30;;;;;;897873;154;27470;-72
2023/07/02 05:23:20;;;;;;;5.55;3.83;;;19.90;76.10;;;;;;899199;155;27425;-72
2023/07/02 05:25:47;;;;;;;4.37;3.50;;;20.10;76.90;;;;;;898264;155;27501;-71
2023/07/02 05:28:13;;;;;;;6.28;4.10;;;20.30;77.70;;;;;;899962;155;27452;-71
2023/07/02 05:30:40;;;;;;;7.17;4.72;;;20.60;77.10;;;;;;898539;156;27997;-72
2023/07/02 05:33:06;;;;;;;5.00;3.65;;;20.90;76.00;;;;;;898196;155;27422;-71
2023/07/02 05:35:33;;;;;;;4.22;3.70;;;21.10;74.60;;;;;;898628;155;27436;-71
2023/07/02 05:38:00;;;;;;;4.47;3.85;;;21.30;73.10;;;;;;898595;155;27464;-71
2023/07/02 05:40:26;;;;;;;4.70;3.85;;;21.40;72.30;;;;;;900219;158;27388;-72
2023/07/02 05:42:53;;;;;;;5.53;4.20;;;21.50;71.70;;;;;;900653;155;27397;-71
2023/07/02 05:45:19;;;;;;;4.75;4.10;;;21.60;71.40;;;;;;899272;155;27547;-71
2023/07/02 05:47:46;;;;;;;5.10;4.20;;;21.70;71.00;;;;;;898197;155;27456;-72
2023/07/02 05:50:12;;;;;;;7.08;4.05;;;21.80;71.30;;;;;;898683;155;27454;-71
2023/07/02 05:52:39;;;;;;;6.05;4.58;;;22.00;71.50;;;;;;899960;155;27481;-72
2023/07/02 05:55:06;;;;;;;6.67;5.17;;;22.20;71.40;;;;;;899292;155;27513;-72
2023/07/02 05:57:32;;;;;;;5.33;4.20;;;22.40;71.10;;;;;;898596;157;27447;-71
2023/07/02 05:59:59;;;;;;;5.78;5.12;;;22.60;70.40;;;;;;898637;155;27375;-72
2023/07/02 06:02:25;;;;;;;5.08;4.60;;;22.70;69.20;;;;;;898150;156;27376;-72
2023/07/02 06:04:52;;;;;;;5.40;4.83;;;22.90;68.50;;;;;;899402;155;27503;-72
2023/07/02 06:07:19;;;;;;;6.15;4.65;;;23.00;67.80;;;;;;897166;155;27387;-72
2023/07/02 06:09:45;;;;;;;5.33;4.67;;;23.00;67.40;;;;;;900121;155;27920;-71
2023/07/02 06:12:12;;;;;;;6.78;5.50;;;23.10;67.20;;;;;;897783;155;27440;-71
2023/07/02 06:14:38;;;;;;;6.55;4.92;;;23.20;67.20;;;;;;898601;155;27379;-72
2023/07/02 06:17:07;;;;;;;6.33;5.42;;;23.40;67.40;;;;;;900618;155;27998;-72
2023/07/02 06:19:32;;;;;;;5.90;4.83;;;23.60;68.50;;;;;;899322;155;27399;-71
2023/07/02 06:21:58;;;;;;;5.80;5.15;;;23.80;67.30;;;;;;898549;154;27580;-77
2023/07/02 06:24:25;;;;;;;7.55;5.78;;;24.10;66.40;;;;;;899077;155;27304;-78
2023/07/02 06:26:51;;;;;;;7.35;5.83;;;24.20;65.40;;;;;;900090;155;27387;-72
2023/07/02 06:29:18;;;;;;;6.30;5.28;;;24.40;64.60;;;;;;899643;155;27522;-72
2023/07/02 06:31:44;;;;;;;7.30;5.50;;;24.50;64.00;;;;;;900027;155;27320;-69
2023/07/02 06:34:11;;;;;;;7.42;5.40;;;24.70;63.70;;;;;;898313;155;27398;-69
2023/07/02 06:36:38;;;;;;;5.80;5.22;;;24.80;63.90;;;;;;897205;155;27371;-70
2023/07/02 06:39:04;;;;;;;6.65;5.58;;;25.00;64.40;;;;;;899187;155;27465;-69
2023/07/02 06:41:31;;;;;;;6.80;5.53;;;25.40;65.10;;;;;;899762;155;27469;-70
2023/07/02 06:43:57;;;;;;;6.97;5.50;;;25.80;65.00;;;;;;899278;155;27485;-70
2023/07/02 06:46:24;;;;;;;6.97;5.90;;;26.30;64.30;;;;;;899830;155;27367;-70
2023/07/02 06:48:51;;;;;;;7.65;5.58;;;26.70;63.00;;;;;;899789;155;27518;-72
2023/07/02 06:51:18;;;;;;;7.08;6.37;;;27.10;61.90;;;;;;896791;155;27398;-71
2023/07/02 06:53:44;;;;;;;7.08;5.65;;;27.40;60.30;;;;;;898684;155;27489;-72
2023/07/02 06:56:10;;;;;;;7.08;5.67;;;27.70;59.70;;;;;;899007;155;27380;-72
2023/07/02 06:58:37;;;;;;;6.53;5.42;;;27.90;59.50;;;;;;899623;155;27371;-72
2023/07/02 07:01:04;;;;;;;6.40;5.65;;;28.10;58.90;;;;;;899091;155;27739;-72
2023/07/02 07:03:30;;;;;;;6.62;5.67;;;28.30;58.40;;;;;;897984;155;27381;-72
2023/07/02 07:05:57;;;;;;;6.47;5.87;;;28.50;58.10;;;;;;899574;155;27403;-72
2023/07/02 07:08:23;;;;;;;6.78;5.92;;;28.70;57.70;;;;;;899592;155;27397;-72
2023/07/02 07:10:50;;;;;;;6.67;5.97;;;28.80;57.20;;;;;;898498;155;27479;-72
2023/07/02 07:13:17;;;;;;;10.18;5.58;;;29.00;56.50;;;;;;900510;155;27387;-72
2023/07/02 07:15:43;;;;;;;7.30;6.10;;;29.00;55.60;;;;;;899062;155;27292;-72
2023/07/02 07:18:10;;;;;;;6.10;5.45;;;29.00;55.20;;;;;;900007;155;27320;-72
2023/07/02 07:20:36;;;;;;;6.00;5.45;;;28.90;54.90;;;;;;899268;155;27432;-72
2023/07/02 07:23:03;;;;;;;8.23;5.95;;;28.70;54.70;;;;;;900803;155;27492;-72
2023/07/02 07:25:30;;;;;;;7.75;6.65;;;28.60;54.60;;;;;;898556;155;27344;-72
2023/07/02 07:27:56;;;;;;;6.83;5.78;;;28.50;54.60;;;;;;900230;155;27378;-72
2023/07/02 07:30:23;;;;;;;9.80;5.92;;;28.40;54.60;;;;;;899007;155;27425;-72
2023/07/02 07:32:49;;;;;;;7.55;6.25;;;28.40;54.70;;;;;;898084;155;27502;-72
2023/07/02 07:35:16;;;;;;;8.25;5.70;;;28.30;54.50;;;;;;897929;155;27844;-72
2023/07/02 07:37:42;;;;;;;7.95;6.00;;;28.20;54.30;;;;;;899025;155;27393;-72
2023/07/02 07:40:09;;;;;;;8.25;6.97;;;28.10;54.30;;;;;;898390;155;27362;-72
2023/07/02 07:42:36;;;;;;;8.10;6.58;;;28.00;54.20;;;;;;898742;155;27421;-72
2023/07/02 07:45:02;;;;;;;6.90;6.20;;;28.00;54.10;;;;;;898914;155;27398;-72
2023/07/02 07:47:29;;;;;;;6.20;5.60;;;27.90;54.00;;;;;;898355;157;27340;-72
2023/07/02 07:49:55;;;;;;;8.25;6.80;;;27.80;54.20;;;;;;899436;155;27465;-72
2023/07/02 07:52:22;;;;;;;8.48;6.40;;;27.80;54.50;;;;;;900205;155;27364;-72
2023/07/02 07:54:49;;;;;;;7.90;6.40;;;27.80;54.20;;;;;;899803;155;27548;-72
2023/07/02 07:57:15;;;;;;;7.20;6.45;;;27.80;54.00;;;;;;898450;155;27375;-72
2023/07/02 07:59:42;;;;;;;7.75;6.47;;;27.80;53.90;;;;;;899651;155;27401;-72
2023/07/02 08:02:09;;;;;;;7.92;7.12;;;27.70;53.80;;;;;;897912;155;27839;-71
2023/07/02 08:04:35;;;;;;;8.40;7.15;;;27.70;53.80;;;;;;898064;155;27439;-72
2023/07/02 08:07:04;;;;;;;8.13;6.62;;;27.60;53.70;;;;;;898829;155;27409;-72
2023/07/02 08:09:28;;;;;;;7.87;7.08;;;27.50;53.70;;;;;;898256;155;27320;-72
2023/07/02 08:11:55;;;;;;;7.12;6.42;;;27.40;53.80;;;;;;897336;155;27439;-72
2023/07/02 08:14:21;;;;;;;7.83;6.20;;;27.40;54.00;;;;;;898947;154;27383;-71
2023/07/02 08:16:48;;;;;;;7.40;6.40;;;27.40;54.00;;;;;;899920;155;27512;-72
2023/07/02 08:19:14;;;;;;;7.17;6.47;;;27.30;53.70;;;;;;899382;155;27485;-72
2023/07/02 08:21:41;;;;;;;8.93;7.20;;;27.30;53.60;;;;;;898618;155;27384;-71
2023/07/02 08:24:08;;;;;;;10.00;6.28;;;27.20;53.50;;;;;;899798;155;27342;-71
2023/07/02 08:26:34;;;;;;;8.53;6.70;;;27.20;53.50;;;;;;898715;155;27395;-72
2023/07/02 08:29:01;;;;;;;8.65;7.05;;;27.10;53.60;;;;;;899763;155;27485;-71
2023/07/02 08:31:27;;;;;;;9.03;6.62;;;27.10;54.00;;;;;;899386;155;27441;-72
2023/07/02 08:33:54;;;;;;;9.45;6.67;;;27.10;54.20;;;;;;899258;155;27454;-72
2023/07/02 08:36:21;;;;;;;8.33;7.03;;;27.20;54.20;;;;;;901112;155;27485;-72
2023/07/02 08:38:47;;;;;;;9.38;6.75;;;27.30;54.30;;;;;;898777;157;27510;-72
2023/07/02 08:41:14;;;;;;;10.30;7.83;;;27.50;54.40;;;;;;897520;157;27379;-72
2023/07/02 08:43:40;;;;;;;7.75;6.25;;;27.80;54.60;;;;;;898684;155;27420;-72
2023/07/02 08:46:07;;;;;;;10.53;7.58;;;28.10;55.00;;;;;;897494;155;27411;-72
2023/07/02 08:48:34;;;;;;;8.10;6.92;;;28.50;54.60;;;;;;898004;155;27399;-72
2023/07/02 08:51:00;;;;;;;8.18;6.40;;;29.00;54.10;;;;;;898537;155;27383;-74
2023/07/02 08:53:33;;;;;;;7.28;6.28;;;29.30;53.60;;;;;;898763;155;27373;-74
2023/07/02 08:55:53;;;;;;;7.55;6.67;;;29.70;53.40;;;;;;899675;155;27372;-74
2023/07/02 08:58:20;;;;;;;8.58;6.22;;;30.20;53.40;;;;;;897473;155;27411;-75
2023/07/02 09:01:06;;;;;;;7.55;6.28;;;30.70;53.20;;;;;;896489;155;27416;-74
2023/07/02 09:03:32;;;;;;;7.78;6.25;;;31.30;52.80;;;;;;898691;155;27424;-74
2023/07/02 09:05:58;;;;;;;7.83;6.78;;;31.90;52.00;;;;;;898691;155;27387;-74
2023/07/02 09:08:28;;;;;;;6.95;6.25;;;32.30;50.80;;;;;;899815;155;27377;-74
2023/07/02 09:10:54;;;;;;;7.25;6.17;;;32.60;49.60;;;;;;897328;155;27421;-74
2023/07/02 09:13:21;;;;;;;7.30;6.12;;;32.80;48.70;;;;;;898162;155;27395;-74
2023/07/02 09:15:47;;;;;;;6.85;6.22;;;32.90;48.30;;;;;;898202;155;27352;-74
2023/07/02 09:18:20;;;;;;;8.35;6.20;;;32.90;47.80;;;;;;898801;155;27387;-75
2023/07/02 09:20:46;;;;;;;7.40;6.70;;;33.00;47.40;;;;;;899441;155;27475;-74
2023/07/02 09:23:13;;;;;;;7.75;6.33;;;33.00;47.20;;;;;;898511;155;27773;-74
2023/07/02 09:25:40;;;;;;;7.45;6.65;;;32.90;46.80;;;;;;895472;155;27482;-74
2023/07/02 09:28:18;;;;;;;7.67;6.75;;;32.80;46.40;;;;;;898053;155;27528;-74
2023/07/02 09:30:51;;;;;;;8.28;6.28;;;32.60;46.20;;;;;;898872;155;27504;-74
2023/07/02 09:33:17;;;;;;;7.03;5.97;;;32.40;46.20;;;;;;897058;155;27488;-74
2023/07/02 09:35:44;;;;;;;8.75;6.53;;;32.30;46.30;;;;;;900426;155;27370;-74
2023/07/02 09:38:10;;;;;;;7.90;6.35;;;32.20;46.20;;;;;;898880;155;27839;-74
2023/07/02 09:40:37;;;;;;;6.37;5.78;;;32.00;46.10;;;;;;899155;155;27334;-74
2023/07/02 09:43:04;;;;;;;6.80;6.10;;;32.00;46.30;;;;;;897828;155;27403;-74
2023/07/02 09:45:30;;;;;;;6.92;6.22;;;32.10;46.90;;;;;;897614;155;27515;-74
2023/07/02 09:47:57;;;;;;;6.90;6.20;;;32.30;47.30;;;;;;899122;155;26305;-74
2023/07/02 09:50:24;;;;;;;8.40;6.10;;;32.60;47.40;;;;;;898660;155;26412;-74
2023/07/02 09:52:50;;;;;;;6.83;6.22;;;33.10;46.70;;;;;;898276;155;27377;-75
2023/07/02 09:55:17;;;;;;;5.78;5.25;;;33.30;45.90;;;;;;898076;155;27412;-74
2023/07/02 09:57:43;;;;;;;7.40;6.00;;;33.50;45.00;;;;;;898304;155;27456;-74
2023/07/02 10:00:10;;;;;;;8.90;6.50;;;33.50;44.10;;;;;;897673;155;27367;-74
2023/07/02 10:02:38;;;;;;;7.15;6.20;;;33.40;43.60;;;;;;899643;155;27367;-75
2023/07/02 10:05:04;;;;;;;6.35;5.75;;;33.20;43.20;;;;;;899391;155;27403;-74
2023/07/02 10:07:30;;;;;;;6.53;5.55;;;32.90;42.80;;;;;;898957;157;27371;-74
2023/07/02 10:09:56;;;;;;;8.35;6.25;;;32.60;42.60;;;;;;900219;155;27399;-74
2023/07/02 10:12:25;;;;;;;6.83;6.20;;;32.20;42.60;;;;;;898416;155;27288;-74
2023/07/02 10:14:52;;;;;;;6.50;5.90;;;31.70;42.70;;;;;;899080;155;27554;-75
2023/07/02 10:17:30;;;;;;;6.47;5.85;;;31.20;43.00;;;;;;898381;155;27473;-74
2023/07/02 10:19:54;;;;;;;8.68;6.42;;;30.70;43.30;;;;;;899521;155;27367;-74
2023/07/02 10:22:21;;;;;;;7.67;6.05;;;30.30;43.70;;;;;;897806;155;27453;-74
2023/07/02 10:24:53;;;;;;;7.33;6.62;;;29.90;44.30;;;;;;897398;155;27424;-76
2023/07/02 10:27:19;;;;;;;8.20;6.97;;;29.60;44.80;;;;;;897498;155;27453;-77
2023/07/02 10:29:52;;;;;;;7.83;6.55;;;29.40;45.50;;;;;;898259;155;27363;-76
2023/07/02 10:32:28;;;;;;;9.78;6.65;;;29.30;46.00;;;;;;899415;155;27451;-77
2023/07/02 10:34:54;;;;;;;7.45;6.50;;;29.30;46.30;;;;;;898373;155;27443;-77
2023/07/02 10:37:21;;;;;;;8.55;6.62;;;29.30;46.60;;;;;;899132;155;27424;-77
2023/07/02 10:39:47;;;;;;;7.97;6.80;;;29.40;46.90;;;;;;899163;155;27347;-77
2023/07/02 10:42:14;;;;;;;9.43;6.65;;;29.60;46.80;;;;;;899129;155;27528;-77
2023/07/02 10:44:53;;;;;;;9.70;6.28;;;29.80;46.60;;;;;;898667;155;27799;-77
2023/07/02 10:47:19;;;;;;;8.40;6.62;;;30.00;46.30;;;;;;899782;155;27407;-77
2023/07/02 10:49:46;;;;;;;6.80;5.95;;;30.20;46.20;;;;;;899516;155;27366;-74
2023/07/02 10:52:12;;;;;;;6.80;6.10;;;30.30;45.90;;;;;;898252;155;27381;-71
2023/07/02 10:54:45;;;;;;;7.95;6.08;;;30.40;45.80;;;;;;898960;155;27446;-72
2023/07/02 10:57:11;;;;;;;7.28;6.58;;;30.60;45.60;;;;;;898257;155;27504;-72
2023/07/02 10:59:38;;;;;;;6.65;5.92;;;30.70;45.10;;;;;;899529;157;27419;-72
2023/07/02 11:02:06;;;;;;;6.62;5.97;;;30.70;44.30;;;;;;898173;155;27404;-72
2023/07/02 11:04:31;;;;;;;7.45;6.58;;;30.80;44.00;;;;;;897083;155;27341;-72
2023/07/02 11:06:58;;;;;;;7.08;6.40;;;30.70;43.40;;;;;;898211;157;27424;-72
2023/07/02 11:09:24;;;;;;;9.20;6.75;;;30.50;43.00;;;;;;897023;155;27491;-72
2023/07/02 11:11:54;;;;;;;7.37;6.20;;;30.30;42.90;;;;;;899881;155;27406;-72
2023/07/02 11:14:32;;;;;;;8.10;6.20;;;30.10;43.00;;;;;;899118;154;27772;-72
2023/07/02 11:16:59;;;;;;;8.25;6.33;;;29.90;43.30;;;;;;899751;155;27477;-72
2023/07/02 11:19:25;;;;;;;6.60;5.87;;;29.80;43.60;;;;;;899210;157;27403;-72
2023/07/02 11:21:52;;;;;;;7.28;6.40;;;29.80;44.00;;;;;;898515;155;27418;-72
2023/07/02 11:24:19;;;;;;;8.85;7.05;;;29.70;44.30;;;;;;898031;155;27375;-72
2023/07/02 11:26:45;;;;;;;7.80;6.83;;;29.80;44.10;;;;;;896044;155;27377;-72
2023/07/02 11:29:12;;;;;;;7.58;6.37;;;29.80;43.90;;;;;;899082;155;27492;-72
2023/07/02 11:31:38;;;;;;;9.35;7.58;;;29.80;43.90;;;;;;898798;155;27400;-72
2023/07/02 11:34:17;;;;;;;8.13;6.87;;;29.90;43.70;;;;;;897396;155;27419;-72
2023/07/02 11:36:43;;;;;;;7.67;6.87;;;29.90;43.50;;;;;;898990;155;27496;-72
2023/07/02 11:39:10;;;;;;;8.40;6.87;;;29.90;43.30;;;;;;899324;155;27383;-72
2023/07/02 11:41:36;;;;;;;8.28;6.90;;;29.90;43.30;;;;;;897903;155;27485;-72
2023/07/02 11:44:03;;;;;;;7.97;6.55;;;29.90;43.50;;;;;;897613;155;27474;-72
2023/07/02 11:46:30;;;;;;;7.25;6.55;;;29.90;43.20;;;;;;896861;155;27379;-72
2023/07/02 11:48:56;;;;;;;7.92;6.67;;;29.90;42.90;;;;;;900138;155;27549;-72
2023/07/02 11:51:23;;;;;;;7.40;6.65;;;29.90;42.90;;;;;;896998;155;27379;-72
2023/07/02 11:53:49;;;;;;;8.08;6.37;;;29.90;42.90;;;;;;899920;155;27373;-72
2023/07/02 11:56:16;;;;;;;7.75;6.95;;;30.00;42.80;;;;;;898042;155;27364;-72
2023/07/02 11:58:43;;;;;;;7.67;6.70;;;30.00;42.50;;;;;;900326;155;27401;-72
2023/07/02 12:01:09;;;;;;;8.65;6.78;;;30.10;42.40;;;;;;899340;155;27468;-72
2023/07/02 12:03:36;;;;;;;8.45;6.70;;;30.10;42.10;;;;;;897553;155;27418;-72
2023/07/02 12:06:02;;;;;;;7.17;6.50;;;30.10;41.90;;;;;;899531;155;27342;-72
2023/07/02 12:08:29;;;;;;;7.15;6.45;;;30.20;41.90;;;;;;898954;155;27537;-72
2023/07/02 12:10:55;;;;;;;8.20;7.40;;;30.10;41.90;;;;;;898995;155;27383;-72
2023/07/02 12:13:22;;;;;;;8.43;7.08;;;30.10;42.00;;;;;;898827;155;27421;-72
2023/07/02 12:15:51;;;;;;;8.40;7.55;;;30.20;42.10;;;;;;897981;155;27312;-72
2023/07/02 12:18:15;;;;;;;9.35;8.00;;;30.20;41.90;;;;;;897220;155;27604;-72
2023/07/02 12:20:42;;;;;;;8.95;8.05;;;30.20;41.80;;;;;;898216;155;27412;-72
2023/07/02 12:23:10;;;;;;;10.25;7.58;;;30.10;41.60;;;;;;897977;155;27410;-72
2023/07/02 12:25:35;;;;;;;8.70;7.20;;;30.10;41.50;;;;;;898705;155;27855;-72
2023/07/02 12:28:02;;;;;;;8.53;7.30;;;30.20;41.30;;;;;;897771;155;27484;-72
2023/07/02 12:30:28;;;;;;;8.58;7.78;;;30.20;41.40;;;;;;897963;155;27387;-72
2023/07/02 12:32:55;;;;;;;8.13;7.33;;;30.10;41.30;;;;;;898812;155;27434;-72
2023/07/02 12:35:21;;;;;;;8.58;7.42;;;30.20;41.30;;;;;;902265;154;27403;-72
2023/07/02 12:37:48;;;;;;;9.13;7.37;;;30.20;41.40;;;;;;897885;155;27503;-72
2023/07/02 12:40:15;;;;;;;8.63;7.33;;;30.10;41.30;;;;;;897957;155;27329;-72
2023/07/02 12:42:41;;;;;;;8.45;7.12;;;30.10;41.30;;;;;;897658;155;27535;-72